createdAt,value
2023-04-21T08:20:20.139Z,952.4238
2023-04-21T08:21:21.718Z,952.4385
2023-04-21T08:22:23.192Z,952.4470
2023-04-21T08:23:24.718Z,952.4492
2023-04-21T08:38:04.397Z,952.5566
2023-04-21T08:39:05.944Z,952.5892
2023-04-21T08:40:07.451Z,952.5646
2023-04-21T08:41:08.961Z,952.5592
2023-04-21T08:42:10.500Z,952.4962
2023-04-21T08:43:11.964Z,952.4300
2023-04-21T08:44:13.523Z,952.4084
2023-04-21T08:45:15.079Z,952.3839
2023-04-21T08:46:16.541Z,952.3700
2023-04-21T08:47:18.047Z,952.3592
2023-04-21T08:48:19.533Z,952.3592
2023-04-21T08:49:21.285Z,952.3854
2023-04-21T08:50:22.634Z,952.4169
2023-04-21T08:51:24.327Z,952.4646
2023-04-21T08:52:25.621Z,952.5239
2023-04-21T08:53:27.089Z,952.5369
2023-04-21T08:54:29.949Z,952.5354
2023-04-21T08:55:30.214Z,952.4777
2023-04-21T08:56:31.806Z,952.4315
2023-04-21T08:57:33.265Z,952.4031
2023-04-21T08:58:34.773Z,952.3885
2023-04-21T08:59:36.403Z,952.3992
2023-04-21T09:00:37.892Z,952.3800
2023-04-21T09:01:39.516Z,952.3700
2023-04-21T09:02:41.117Z,952.3585
2023-04-21T09:03:42.596Z,952.3900
2023-04-21T09:04:44.185Z,952.4031
2023-04-21T09:05:45.745Z,952.4061
2023-04-21T10:12:21.715Z,952.3033
2023-04-21T10:13:23.193Z,952.3277
2023-04-21T10:14:24.737Z,952.2985
2023-04-21T11:35:06.804Z,951.8091
2023-04-21T11:36:08.313Z,951.8046
2023-04-21T11:47:56.051Z,951.9883
2023-04-21T11:48:57.560Z,951.9915
2023-04-21T11:49:59.066Z,951.9985
2023-04-21T11:51:00.574Z,951.9654
2023-04-21T11:52:02.117Z,951.9584
2023-04-21T11:53:03.662Z,951.9677
2023-04-21T11:55:22.222Z,951.9950
2023-04-21T11:56:23.735Z,952.0546
2023-04-21T11:57:25.283Z,952.1108
2023-04-21T13:02:27.035Z,952.1891
2023-04-21T13:03:28.512Z,952.1193
2023-04-21T13:04:30.076Z,952.0646
2023-04-21T13:05:31.420Z,952.0600
2023-04-21T13:06:32.948Z,952.0700
2023-04-21T13:07:34.481Z,952.1446
2023-04-21T13:08:35.969Z,952.2292
2023-04-21T13:09:37.480Z,952.2623
2023-04-21T13:10:39.010Z,952.2538
2023-04-21T13:11:40.548Z,952.2423
2023-04-21T13:12:42.078Z,952.2361
2023-04-21T13:13:43.605Z,952.2708
2023-04-21T13:14:45.119Z,952.2839
2023-04-21T13:15:46.641Z,952.2953
2023-04-21T13:16:48.263Z,952.3100
2023-04-21T13:17:49.685Z,952.3369
2023-04-21T13:18:51.192Z,952.3554
2023-04-21T13:19:52.801Z,952.3992
2023-04-21T13:20:54.248Z,952.4492
2023-04-21T13:21:55.759Z,952.4677
2023-04-21T13:22:57.329Z,952.4815
2023-04-21T13:23:58.842Z,952.4677
2023-04-21T13:25:00.365Z,952.4577
2023-04-21T13:26:01.889Z,952.5015
2023-04-21T13:27:03.397Z,952.5208
2023-04-21T13:28:04.953Z,952.5692
2023-04-21T13:29:06.447Z,952.6262
2023-04-21T13:30:08.010Z,952.7077
2023-04-21T13:31:09.558Z,952.7538
2023-04-21T13:32:11.052Z,952.7700
2023-04-21T13:33:12.651Z,952.7408
2023-04-21T13:34:14.111Z,952.7423
2023-04-21T13:35:15.676Z,952.7323
2023-04-21T13:36:17.140Z,952.7546
2023-04-21T13:37:18.720Z,952.8046
2023-04-21T13:38:20.197Z,952.8046
2023-04-21T13:39:21.720Z,952.7692
2023-04-21T13:40:23.258Z,952.7731
2023-04-21T13:41:24.803Z,952.7754
2023-04-21T13:42:26.297Z,952.7546
2023-04-21T13:43:27.854Z,952.7508
2023-04-21T13:44:29.347Z,952.7100
2023-04-21T13:45:30.885Z,952.6161
2023-04-21T13:46:32.493Z,952.5431
2023-04-21T13:47:33.992Z,952.4661
2023-04-21T13:48:35.446Z,952.4077
2023-04-21T13:49:36.969Z,952.3531
2023-04-21T13:50:38.611Z,952.2985
2023-04-21T13:51:40.057Z,952.2046
2023-04-21T13:52:41.588Z,952.1100
2023-04-21T13:53:43.143Z,952.0862
2023-04-21T13:54:44.613Z,952.1008
2023-04-21T13:55:46.140Z,952.0992
2023-04-21T13:56:47.645Z,952.0623
2023-04-21T13:57:49.194Z,952.0115
2023-04-21T13:58:50.760Z,951.9392
2023-04-21T13:59:52.255Z,951.8723
2023-04-21T14:00:53.738Z,951.8384
2023-04-21T14:01:55.362Z,951.8000
2023-04-21T14:02:57.197Z,951.8023
2023-04-21T14:03:58.739Z,951.7900
2023-04-21T14:04:59.988Z,951.7330
2023-04-21T14:06:01.386Z,951.6885
2023-04-21T14:07:02.908Z,951.7062
2023-04-21T14:08:04.463Z,951.7285
2023-04-21T14:09:05.929Z,951.7223
2023-04-21T14:10:07.482Z,951.7008
2023-04-21T14:11:08.995Z,951.6346
2023-04-21T14:12:10.564Z,951.5662
2023-04-21T14:13:17.583Z,951.5654
2023-04-21T14:14:24.240Z,951.6085
2023-04-21T14:15:19.820Z,951.7007
2023-04-21T14:16:21.457Z,951.7993
2023-04-21T14:17:22.890Z,951.8754
2023-04-21T14:18:24.510Z,951.8892
2023-04-21T14:19:25.921Z,951.8885
2023-04-21T14:20:27.474Z,951.9054
2023-04-21T14:21:28.930Z,951.9153
2023-04-21T14:22:30.457Z,951.9108
2023-04-21T14:23:32.023Z,951.9023
2023-04-21T14:24:33.532Z,951.8446
2023-04-21T14:25:35.048Z,951.7915
2023-04-21T14:26:36.549Z,951.8077
2023-04-21T14:27:38.104Z,951.8285
2023-04-21T14:28:39.617Z,951.8423
2023-04-21T14:29:41.101Z,951.8469
2023-04-21T14:30:42.704Z,951.8384
2023-04-21T14:31:44.176Z,951.7977
2023-04-21T14:32:45.821Z,951.8023
2023-04-21T14:33:47.282Z,951.8477
2023-04-21T14:34:48.816Z,951.8800
2023-04-21T14:35:50.291Z,951.9277
2023-04-21T14:36:51.794Z,951.9623
2023-04-21T14:37:55.281Z,951.9507
2023-04-21T14:38:55.341Z,951.9077
2023-04-21T14:39:56.607Z,951.9192
2023-04-21T14:40:57.886Z,951.9292
2023-04-21T14:41:59.359Z,951.9277
2023-04-21T14:43:00.921Z,951.9385
2023-04-21T14:44:02.435Z,951.9146
2023-04-21T14:45:03.935Z,951.8885
2023-04-21T14:46:05.556Z,951.9146
2023-04-21T14:47:10.450Z,951.9539
2023-04-21T14:48:08.628Z,951.9969
2023-04-21T14:49:10.058Z,952.0108
2023-04-21T14:50:11.579Z,952.0015
2023-04-21T14:51:13.243Z,951.9639
2023-04-21T14:52:14.588Z,951.9454
2023-04-21T14:53:16.158Z,951.9269
2023-04-21T14:54:17.668Z,951.9300
2023-04-21T14:55:19.176Z,951.9215
2023-04-21T14:56:20.688Z,951.8992
2023-04-21T14:57:22.298Z,951.8600
2023-04-21T14:58:23.793Z,951.8392
2023-04-21T14:59:25.256Z,951.8500
2023-04-21T15:00:26.870Z,951.8492
2023-04-21T15:01:28.324Z,951.8746
2023-04-21T15:02:30.008Z,951.8831
2023-04-21T15:03:31.567Z,951.8546
2023-04-21T15:04:33.006Z,951.8369
2023-04-21T15:05:34.484Z,951.8638
2023-04-21T15:06:35.960Z,951.9131
2023-04-21T15:07:37.498Z,951.9539
2023-04-21T15:08:38.996Z,951.9823
2023-04-21T15:09:40.571Z,951.9731
2023-04-21T15:10:42.006Z,951.9338
2023-04-21T15:11:43.579Z,951.9208
2023-04-21T15:12:45.052Z,951.9323
2023-04-21T15:13:46.607Z,951.9531
2023-04-21T15:14:48.152Z,951.9462
2023-04-21T15:15:49.672Z,951.8892
2023-04-21T15:16:51.189Z,951.7869
2023-04-21T15:17:52.725Z,951.7623
2023-04-21T15:18:54.226Z,951.7570
2023-04-21T15:19:55.721Z,951.7585
2023-04-21T15:20:57.286Z,951.7747
2023-04-21T15:21:58.770Z,951.7769
2023-04-21T15:23:00.285Z,951.7154
2023-04-21T15:24:01.859Z,951.6654
2023-04-21T15:25:03.347Z,951.6323
2023-04-21T15:26:04.863Z,951.6370
2023-04-21T15:27:06.426Z,951.6462
2023-04-21T15:28:07.951Z,951.6447
2023-04-21T15:29:09.424Z,951.6016
2023-04-21T15:30:10.940Z,951.5139
2023-04-21T15:31:12.535Z,951.4823
2023-04-21T15:32:14.017Z,951.5038
2023-04-21T15:33:15.556Z,951.5423
2023-04-21T15:34:17.042Z,951.5884
2023-04-21T15:35:18.565Z,951.6092
2023-04-21T15:36:20.108Z,951.5777
2023-04-21T15:37:24.170Z,951.5762
2023-04-21T15:38:23.167Z,951.6185
2023-04-21T15:39:24.720Z,951.6377
2023-04-21T15:40:26.190Z,951.6554
2023-04-21T15:42:31.112Z,951.6492
2023-04-21T15:42:31.112Z,951.5750
2023-04-21T15:43:32.401Z,951.5654
2023-04-21T15:44:33.569Z,951.6093
2023-04-21T15:45:34.849Z,951.6715
2023-04-21T15:46:36.193Z,951.7454
2023-04-21T15:47:37.333Z,951.8054
2023-04-21T15:48:38.662Z,951.8170
2023-04-21T15:49:39.925Z,951.8069
2023-04-21T15:50:41.360Z,951.8354
2023-04-21T15:51:42.939Z,951.8831
2023-04-21T15:52:44.494Z,951.9077
2023-04-21T15:53:45.970Z,951.9446
2023-04-21T15:54:47.444Z,951.9470
2023-04-21T15:55:49.007Z,951.9000
2023-04-21T15:56:50.500Z,951.8484
2023-04-21T15:57:52.035Z,951.8384
2023-04-21T15:58:53.585Z,951.8208
2023-04-21T15:59:55.148Z,951.8285
2023-04-21T16:00:56.625Z,951.8146
2023-04-21T16:01:58.179Z,951.7354
2023-04-21T16:02:59.828Z,951.6215
2023-04-21T16:04:01.307Z,951.5615
2023-04-21T16:05:02.874Z,951.5361
2023-04-21T16:06:04.409Z,951.5508
2023-04-21T16:07:05.780Z,951.5808
2023-04-21T16:08:07.277Z,951.5792
2023-04-21T16:09:08.808Z,951.5308
2023-04-21T16:10:10.290Z,951.5285
2023-04-21T16:11:11.858Z,951.5769
2023-04-21T16:12:13.373Z,951.6146
2023-04-21T16:13:14.898Z,951.6484
2023-04-21T16:14:16.456Z,951.6516
2023-04-21T16:15:23.770Z,951.6054
2023-04-21T16:16:21.614Z,951.5477
2023-04-21T16:17:25.645Z,951.5569
2023-04-21T16:18:24.153Z,951.5762
2023-04-21T16:19:25.303Z,951.6038
2023-04-21T16:20:26.528Z,951.6038
2023-04-21T16:21:27.783Z,951.5577
2023-04-21T16:22:29.010Z,951.4992
2023-04-21T16:23:30.299Z,951.4992
2023-04-21T16:24:31.691Z,951.5208
2023-04-21T16:25:33.240Z,951.5361
2023-04-21T16:26:34.611Z,951.5323
2023-04-21T16:27:36.167Z,951.4985
2023-04-21T16:28:37.701Z,951.4230
2023-04-21T16:29:39.175Z,951.4146
2023-04-21T16:30:40.786Z,951.4438
2023-04-21T16:31:42.264Z,951.4577
2023-04-21T16:32:43.827Z,951.4746
2023-04-21T16:33:45.317Z,951.4731
2023-04-21T16:34:46.911Z,951.4146
2023-04-21T16:35:48.441Z,951.3770
2023-04-21T16:36:49.941Z,951.4077
2023-04-21T16:37:51.377Z,951.4531
2023-04-21T16:38:52.892Z,951.4815
2023-04-21T16:39:54.483Z,951.4954
2023-04-21T16:40:55.945Z,951.4638
2023-04-21T16:41:57.453Z,951.4161
2023-04-21T16:42:58.990Z,951.4292
2023-04-21T16:44:00.482Z,951.4531
2023-04-21T16:45:02.081Z,951.4761
2023-04-21T16:46:03.574Z,951.5015
2023-04-21T16:47:05.188Z,951.4893
2023-04-21T16:48:06.880Z,951.4385
2023-04-21T16:49:08.185Z,951.4454
2023-04-21T16:50:09.664Z,951.4808
2023-04-21T16:51:11.244Z,951.5208
2023-04-21T16:52:12.750Z,951.5592
2023-04-21T16:53:14.214Z,951.5685
2023-04-21T16:54:15.730Z,951.5146
2023-04-21T16:55:17.250Z,951.5054
2023-04-21T16:56:18.770Z,951.5231
2023-04-21T16:57:20.264Z,951.5485
2023-04-21T16:58:21.808Z,951.5777
2023-04-21T16:59:23.317Z,951.5939
2023-04-21T17:00:24.864Z,951.5416
2023-04-21T17:01:26.423Z,951.4885
2023-04-21T17:02:27.963Z,951.4877
2023-04-21T17:03:29.580Z,951.4969
2023-04-21T17:04:31.132Z,951.5008
2023-04-21T17:05:32.577Z,951.4892
2023-04-21T17:06:34.082Z,951.4469
2023-04-21T17:07:35.597Z,951.3862
2023-04-21T17:08:37.121Z,951.3808
2023-04-21T17:09:38.628Z,951.4123
2023-04-21T17:10:40.177Z,951.4477
2023-04-21T17:11:41.717Z,951.4738
2023-04-21T17:12:43.237Z,951.4654
2023-04-21T17:13:44.745Z,951.4154
2023-04-21T17:14:46.259Z,951.4000
2023-04-21T17:15:47.774Z,951.4185
2023-04-21T17:16:49.305Z,951.4354
2023-04-21T17:17:50.909Z,951.4338
2023-04-21T17:18:52.357Z,951.4154
2023-04-21T17:19:53.976Z,951.3531
2023-04-21T17:20:55.421Z,951.3246
2023-04-21T17:21:56.912Z,951.3692
2023-04-21T17:22:58.457Z,951.4185
2023-04-21T17:23:59.998Z,951.4547
2023-04-21T17:25:01.508Z,951.4547
2023-04-21T17:26:03.044Z,951.4123
2023-04-21T17:27:04.536Z,951.3431
2023-04-21T17:28:06.082Z,951.3377
2023-04-21T17:29:07.646Z,951.3615
2023-04-21T17:30:09.157Z,951.3846
2023-04-21T17:31:15.813Z,951.4077
2023-04-21T17:32:12.544Z,951.3915
2023-04-21T17:33:17.359Z,951.3454
2023-04-21T17:34:15.243Z,951.3623
2023-04-21T17:35:16.751Z,951.4108
2023-04-21T17:36:18.269Z,951.4515
2023-04-21T17:37:19.781Z,951.4838
2023-04-21T17:38:21.292Z,951.4777
2023-04-21T17:39:22.904Z,951.4169
2023-04-21T17:40:24.394Z,951.3792
2023-04-21T17:41:25.875Z,951.3923
2023-04-21T17:42:27.419Z,951.4246
2023-04-21T17:43:28.947Z,951.4462
2023-04-21T17:44:30.457Z,951.4592
2023-04-21T17:45:32.001Z,951.4215
2023-04-21T17:46:33.589Z,951.3808
2023-04-21T17:47:35.055Z,951.4061
2023-04-21T17:48:36.534Z,951.4431
2023-04-21T17:49:38.090Z,951.4731
2023-04-21T17:50:39.585Z,951.4877
2023-04-21T17:51:41.147Z,951.4654
2023-04-21T17:52:42.666Z,951.4069
2023-04-21T17:53:44.171Z,951.4138
2023-04-21T17:54:45.680Z,951.4592
2023-04-21T17:55:47.222Z,951.5046
2023-04-21T17:56:48.704Z,951.5262
2023-04-21T17:57:50.260Z,951.5200
2023-04-21T17:58:51.778Z,951.4577
2023-04-21T17:59:53.261Z,951.4385
2023-04-21T18:00:54.784Z,951.4615
2023-04-21T18:01:56.378Z,951.4954
2023-04-21T18:02:57.945Z,951.5300
2023-04-21T18:04:00.988Z,951.5377
2023-04-21T18:05:01.664Z,951.5000
2023-04-21T18:06:02.768Z,951.4684
2023-04-21T18:07:04.035Z,951.4869
2023-04-21T18:08:05.453Z,951.5139
2023-04-21T18:09:07.005Z,951.5392
2023-04-21T18:10:08.503Z,951.5508
2023-04-21T18:11:10.010Z,951.5146
2023-04-21T18:12:11.554Z,951.4715
2023-04-21T18:13:13.090Z,951.4846
2023-04-21T18:14:14.622Z,951.5162
2023-04-21T18:15:16.153Z,951.5469
2023-04-21T18:16:17.762Z,951.5762
2023-04-21T18:17:19.200Z,951.5600
2023-04-21T18:18:20.689Z,951.5031
2023-04-21T18:19:22.204Z,951.4869
2023-04-21T18:20:23.720Z,951.5208
2023-04-21T18:21:25.291Z,951.5623
2023-04-21T18:22:26.767Z,951.6054
2023-04-21T18:23:28.286Z,951.6092
2023-04-21T18:24:29.869Z,951.5646
2023-04-21T18:25:41.917Z,951.5469
2023-04-21T18:26:32.879Z,951.5646
2023-04-21T18:27:34.418Z,951.5708
2023-04-21T18:28:35.926Z,951.5785
2023-04-21T18:29:37.421Z,951.5685
2023-04-21T18:30:38.944Z,951.5077
2023-04-21T18:31:40.533Z,951.4661
2023-04-21T18:32:42.090Z,951.4938
2023-04-21T18:33:43.520Z,951.5562
2023-04-21T18:34:45.057Z,951.6015
2023-04-21T18:35:46.578Z,951.6423
2023-04-21T18:36:48.068Z,951.6377
2023-04-21T18:37:49.611Z,951.5746
2023-04-21T18:38:51.124Z,951.5569
2023-04-21T18:39:52.656Z,951.5731
2023-04-21T18:40:54.153Z,951.6161
2023-04-21T18:41:55.748Z,951.6623
2023-04-21T18:42:57.224Z,951.6830
2023-04-21T18:43:58.712Z,951.6354
2023-04-21T18:45:02.151Z,951.6323
2023-04-21T18:46:01.759Z,951.6492
2023-04-21T18:47:03.366Z,951.6992
2023-04-21T18:48:04.857Z,951.7500
2023-04-21T18:49:06.336Z,951.7992
2023-04-21T18:50:07.870Z,951.7931
2023-04-21T18:51:09.422Z,951.7785
2023-04-21T18:52:10.894Z,951.8054
2023-04-21T18:53:12.451Z,951.8285
2023-04-21T18:54:13.937Z,951.8638
2023-04-21T18:55:15.498Z,951.8823
2023-04-21T18:56:17.019Z,951.8546
2023-04-21T18:57:18.544Z,951.7846
2023-04-21T18:58:20.024Z,951.7839
2023-04-21T18:59:21.570Z,951.7992
2023-04-21T19:00:23.057Z,951.8354
2023-04-21T19:01:24.600Z,951.8738
2023-04-21T19:02:26.261Z,951.8969
2023-04-21T19:03:27.771Z,951.9023
2023-04-21T19:04:29.194Z,951.9208
2023-04-21T19:05:31.501Z,951.9600
2023-04-21T19:06:32.206Z,951.9777
2023-04-21T19:07:33.717Z,951.9915
2023-04-21T19:08:41.879Z,951.9738
2023-04-21T19:09:38.556Z,951.9185
2023-04-21T19:10:39.741Z,951.8615
2023-04-21T19:11:41.002Z,951.8677
2023-04-21T19:12:42.234Z,951.9069
2023-04-21T19:13:43.457Z,951.9292
2023-04-21T19:14:47.520Z,951.9623
2023-04-21T19:15:45.971Z,951.9584
2023-04-21T19:16:47.464Z,951.9330
2023-04-21T19:17:49.024Z,951.9138
2023-04-21T19:18:50.503Z,951.9108
2023-04-21T19:19:52.018Z,951.9200
2023-04-21T19:20:53.556Z,951.9315
2023-04-21T19:21:55.047Z,951.9208
2023-04-21T19:22:56.582Z,951.8738
2023-04-21T19:23:58.199Z,951.8661
2023-04-21T19:24:59.635Z,951.9200
2023-04-21T19:26:01.183Z,951.9908
2023-04-21T19:27:02.640Z,952.0431
2023-04-21T19:28:04.194Z,952.0585
2023-04-21T19:29:05.697Z,952.0446
2023-04-21T19:30:07.210Z,952.0392
2023-04-21T19:31:08.769Z,952.0515
2023-04-21T19:32:10.327Z,952.0530
2023-04-21T19:33:11.841Z,952.0530
2023-04-21T19:34:13.332Z,952.0446
2023-04-21T19:35:14.857Z,951.9992
2023-04-21T19:36:16.360Z,951.9408
2023-04-21T19:37:17.892Z,951.9238
2023-04-21T19:38:19.442Z,951.9615
2023-04-21T19:39:20.935Z,951.9900
2023-04-21T19:40:22.466Z,952.0000
2023-04-21T19:41:24.028Z,951.9915
2023-04-21T19:42:25.523Z,951.9585
2023-04-21T19:43:27.084Z,951.9354
2023-04-21T19:44:28.572Z,951.9592
2023-04-21T19:45:30.099Z,951.9923
2023-04-21T19:46:31.659Z,952.0354
2023-04-21T19:47:33.141Z,952.0685
2023-04-21T19:48:34.735Z,952.0538
2023-04-21T19:49:36.232Z,952.0170
2023-04-21T19:50:37.736Z,952.0215
2023-04-21T19:51:39.266Z,952.0577
2023-04-21T19:52:40.794Z,952.1016
2023-04-21T19:53:42.326Z,952.1215
2023-04-21T19:54:43.840Z,952.1370
2023-04-21T19:55:45.430Z,952.1069
2023-04-21T19:56:46.894Z,952.0931
2023-04-21T19:57:48.406Z,952.1023
2023-04-21T19:58:49.945Z,952.0961
2023-04-21T19:59:51.455Z,952.0831
2023-04-21T20:00:53.017Z,952.0585
2023-04-21T20:01:54.712Z,952.0077
2023-04-21T20:02:56.119Z,951.9861
2023-04-21T20:03:57.672Z,952.0062
2023-04-21T20:04:59.269Z,952.0316
2023-04-21T20:06:00.631Z,952.0523
2023-04-21T20:07:02.194Z,952.0808
2023-04-21T20:08:03.663Z,952.0708
2023-04-21T20:09:05.221Z,952.0453
2023-04-21T20:10:06.753Z,952.0438
2023-04-21T20:11:08.253Z,952.0592
2023-04-21T20:12:09.789Z,952.0708
2023-04-21T20:13:11.337Z,952.0600
2023-04-21T20:14:12.836Z,952.0369
2023-04-21T20:15:14.342Z,952.0177
2023-04-21T20:16:15.951Z,952.0316
2023-04-21T20:17:17.385Z,952.0623
2023-04-21T20:18:18.980Z,952.0777
2023-04-21T20:19:20.476Z,952.1069
2023-04-21T20:20:22.011Z,952.0992
2023-04-21T20:21:23.490Z,952.0769
2023-04-21T20:22:25.036Z,952.0408
2023-04-21T20:23:26.608Z,952.0708
2023-04-21T20:24:28.085Z,952.1008
2023-04-21T20:25:29.584Z,952.0961
2023-04-21T20:26:31.131Z,952.1077
2023-04-21T20:27:32.652Z,952.0846
2023-04-21T20:28:34.184Z,952.0615
2023-04-21T20:29:35.932Z,952.0762
2023-04-21T20:30:37.294Z,952.0946
2023-04-21T20:31:38.842Z,952.1046
2023-04-21T20:32:40.290Z,952.1285
2023-04-21T20:33:41.779Z,952.1246
2023-04-21T20:34:43.305Z,952.0854
2023-04-21T20:35:44.820Z,952.0792
2023-04-21T20:36:46.403Z,952.1046
2023-04-21T20:37:47.872Z,952.1270
2023-04-21T20:38:49.550Z,952.1300
2023-04-21T20:39:50.921Z,952.1262
2023-04-21T20:40:52.453Z,952.0785
2023-04-21T20:42:08.836Z,952.0385
2023-04-21T20:42:55.532Z,952.0754
2023-04-21T20:43:56.998Z,952.0969
2023-04-21T20:44:58.520Z,952.1108
2023-04-21T20:46:00.068Z,952.1246
2023-04-21T20:47:01.622Z,952.0877
2023-04-21T20:48:03.130Z,952.0331
2023-04-21T20:49:04.628Z,952.0316
2023-04-21T20:50:06.171Z,952.0723
2023-04-21T20:51:07.684Z,952.1000
2023-04-21T20:52:09.214Z,952.1169
2023-04-21T20:53:10.719Z,952.1069
2023-04-21T20:54:12.309Z,952.0638
2023-04-21T20:55:13.784Z,952.0316
2023-04-21T20:56:15.301Z,952.0615
2023-04-21T20:57:16.818Z,952.1000
2023-04-21T20:58:18.351Z,952.1023
2023-04-21T20:59:19.872Z,952.1177
2023-04-21T21:00:21.444Z,952.0892
2023-04-21T21:01:22.943Z,952.0515
2023-04-21T21:02:24.572Z,952.0623
2023-04-21T21:03:26.152Z,952.0946
2023-04-21T21:04:27.607Z,952.1138
2023-04-21T21:05:29.042Z,952.1200
2023-04-21T21:06:30.639Z,952.1038
2023-04-21T21:07:32.143Z,952.0654
2023-04-21T21:08:33.689Z,952.0731
2023-04-21T21:09:35.236Z,952.1023
2023-04-21T21:10:36.720Z,952.1185
2023-04-21T21:11:38.266Z,952.1200
2023-04-21T21:12:39.822Z,952.1238
2023-04-21T21:13:41.318Z,952.0839
2023-04-21T21:14:42.838Z,952.0646
2023-04-21T21:15:44.337Z,952.0931
2023-04-21T21:16:45.915Z,952.1192
2023-04-21T21:17:47.423Z,952.1208
2023-04-21T21:18:48.947Z,952.1177
2023-04-21T21:19:50.432Z,952.1016
2023-04-21T21:20:51.997Z,952.0862
2023-04-21T21:21:53.488Z,952.1146
2023-04-21T21:22:55.018Z,952.1439
2023-04-21T21:23:56.565Z,952.1469
2023-04-21T21:24:58.122Z,952.1554
2023-04-21T21:25:59.612Z,952.1300
2023-04-21T21:27:01.140Z,952.0892
2023-04-21T21:28:02.641Z,952.1046
2023-04-21T21:29:04.167Z,952.1439
2023-04-21T21:30:05.701Z,952.1669
2023-04-21T21:31:07.261Z,952.1584
2023-04-21T21:32:08.825Z,952.1508
2023-04-21T21:33:10.298Z,952.1169
2023-04-21T21:34:11.786Z,952.1215
2023-04-21T21:35:13.327Z,952.1546
2023-04-21T21:36:14.827Z,952.1915
2023-04-21T21:37:16.375Z,952.1970
2023-04-21T21:38:17.895Z,952.1877
2023-04-21T21:39:19.389Z,952.1600
2023-04-21T21:40:20.916Z,952.1308
2023-04-21T21:41:22.460Z,952.1584
2023-04-21T21:42:23.954Z,952.1885
2023-04-21T21:43:25.531Z,952.1885
2023-04-21T21:44:27.021Z,952.1769
2023-04-21T21:45:28.522Z,952.1623
2023-04-21T21:46:30.089Z,952.1370
2023-04-21T21:47:31.586Z,952.1592
2023-04-21T21:48:33.139Z,952.2100
2023-04-21T21:49:34.649Z,952.2485
2023-04-21T21:50:36.128Z,952.2615
2023-04-21T21:51:37.680Z,952.2438
2023-04-21T21:52:39.184Z,952.1808
2023-04-21T21:53:40.727Z,952.1769
2023-04-21T21:54:42.254Z,952.1769
2023-04-21T21:55:43.781Z,952.1777
2023-04-21T21:56:45.294Z,952.1800
2023-04-21T21:57:46.789Z,952.1692
2023-04-21T21:58:48.308Z,952.1300
2023-04-21T21:59:49.837Z,952.1053
2023-04-21T22:00:51.425Z,952.1169
2023-04-21T22:01:53.021Z,952.1400
2023-04-21T22:02:54.508Z,952.1300
2023-04-21T22:03:56.108Z,952.1123
2023-04-21T22:04:57.527Z,952.0862
2023-04-21T22:05:58.984Z,952.0569
2023-04-21T22:07:00.541Z,952.0808
2023-04-21T22:08:02.043Z,952.0908
2023-04-21T22:09:03.540Z,952.0946
2023-04-21T22:10:05.074Z,952.0892
2023-04-21T22:11:06.582Z,952.0454
2023-04-21T22:12:08.200Z,952.0023
2023-04-21T22:13:09.627Z,952.0069
2023-04-21T22:14:21.744Z,952.0739
2023-04-21T22:15:15.164Z,952.1215
2023-04-21T22:16:16.465Z,952.1331
2023-04-21T22:17:17.621Z,952.1285
2023-04-21T22:18:18.912Z,952.0969
2023-04-21T22:19:20.127Z,952.0630
2023-04-21T22:20:21.338Z,952.0854
2023-04-21T22:21:22.617Z,952.1161
2023-04-21T22:22:23.854Z,952.1230
2023-04-21T22:23:25.096Z,952.1238
2023-04-21T22:24:26.398Z,952.0785
2023-04-21T22:25:27.889Z,952.0346
2023-04-21T22:26:29.420Z,952.0508
2023-04-21T22:27:30.940Z,952.1069
2023-04-21T22:28:32.458Z,952.1492
2023-04-21T22:29:33.959Z,952.1546
2023-04-21T22:30:35.549Z,952.1431
2023-04-21T22:31:37.359Z,952.1000
2023-04-21T22:32:38.552Z,952.0977
2023-04-21T22:33:40.073Z,952.1285
2023-04-21T22:34:41.567Z,952.1339
2023-04-21T22:35:43.126Z,952.1270
2023-04-21T22:36:44.601Z,952.1161
2023-04-21T22:37:46.119Z,952.0831
2023-04-21T22:38:47.639Z,952.0692
2023-04-21T22:39:49.173Z,952.1131
2023-04-21T22:40:50.673Z,952.1447
2023-04-21T22:41:52.250Z,952.1592
2023-04-21T22:42:53.735Z,952.1516
2023-04-21T22:43:55.229Z,952.1208
2023-04-21T22:44:56.771Z,952.0847
2023-04-21T22:45:58.305Z,952.0908
2023-04-21T22:46:59.823Z,952.1292
2023-04-21T22:48:01.433Z,952.1669
2023-04-21T22:49:02.857Z,952.1623
2023-04-21T22:50:04.386Z,952.1485
2023-04-21T22:51:05.896Z,952.1092
2023-04-21T22:52:07.403Z,952.1100
2023-04-21T22:53:08.910Z,952.1477
2023-04-21T22:54:10.486Z,952.1800
2023-04-21T22:55:11.959Z,952.1792
2023-04-21T22:56:13.498Z,952.1708
2023-04-21T22:57:14.991Z,952.1369
2023-04-21T22:58:16.535Z,952.0961
2023-04-21T22:59:18.035Z,952.1069
2023-04-21T23:00:19.608Z,952.1285
2023-04-21T23:01:21.280Z,952.1262
2023-04-21T23:02:22.851Z,952.1138
2023-04-21T23:03:24.426Z,952.0777
2023-04-21T23:04:25.676Z,952.0162
2023-04-21T23:05:27.218Z,952.0046
2023-04-21T23:06:28.709Z,952.0385
2023-04-21T23:07:30.195Z,952.0592
2023-04-21T23:08:31.723Z,952.0700
2023-04-21T23:09:33.260Z,952.0577
2023-04-21T23:10:34.788Z,952.0284
2023-04-21T23:11:36.659Z,952.0054
2023-04-21T23:12:37.823Z,952.0085
2023-04-21T23:13:39.319Z,952.0139
2023-04-21T23:14:40.857Z,952.0247
2023-04-21T23:15:42.385Z,952.0200
2023-04-21T23:16:43.918Z,951.9777
2023-04-21T23:17:45.513Z,951.9269
2023-04-21T23:18:46.933Z,951.9169
2023-04-21T23:19:48.442Z,951.9615
2023-04-21T23:20:49.977Z,951.9946
2023-04-21T23:21:51.486Z,952.0092
2023-04-21T23:22:53.005Z,951.9992
2023-04-21T23:23:54.556Z,951.9800
2023-04-21T23:24:56.051Z,951.9761
2023-04-21T23:25:57.609Z,951.9946
2023-04-21T23:26:59.109Z,951.9938
2023-04-21T23:28:00.601Z,952.0054
2023-04-21T23:29:02.182Z,952.0023
2023-04-21T23:30:03.652Z,951.9684
2023-04-21T23:31:05.160Z,951.9477
2023-04-21T23:32:06.754Z,951.9753
2023-04-21T23:33:08.214Z,951.9908
2023-04-21T23:34:09.728Z,952.0031
2023-04-21T23:35:11.294Z,951.9954
2023-04-21T23:36:12.761Z,951.9792
2023-04-21T23:37:14.267Z,951.9547
2023-04-21T23:38:16.491Z,951.9615
2023-04-21T23:39:17.328Z,952.0038
2023-04-21T23:40:18.854Z,952.0139
2023-04-21T23:41:20.364Z,952.0285
2023-04-21T23:42:21.866Z,952.0139
2023-04-21T23:43:23.412Z,952.0123
2023-04-21T23:44:24.929Z,952.0254
2023-04-21T23:45:26.424Z,952.0546
2023-04-21T23:46:28.138Z,952.0523
2023-04-21T23:47:29.493Z,952.0508
2023-04-21T23:48:31.022Z,952.0277
2023-04-21T23:49:32.516Z,951.9716
2023-04-21T23:50:34.076Z,951.9592
2023-04-21T23:51:35.551Z,951.9723
2023-04-21T23:52:37.114Z,951.9838
2023-04-21T23:53:38.601Z,951.9692
2023-04-21T23:54:40.139Z,951.9608
2023-04-21T23:55:41.640Z,951.9116
2023-04-21T23:56:43.195Z,951.8792
2023-04-21T23:57:44.711Z,951.8654
2023-04-21T23:58:46.257Z,951.8623
2023-04-21T23:59:47.783Z,951.8839
